Big Horn, WY (82833)

2:02 PM MST on February 10, 2016 (GMT -0700)
KWYSHERI3 | | Change Station
CLOSE
Current Station
Personal Weather Station
Location: Sheridan, WY
Elevation: 3860 ft
Nearby Weather Stations

Elev 3860 ft 44.76 °N, 106.96 °W | Updated 9 seconds ago

Mostly Cloudy
Mostly Cloudy
57.9 °F
Feels Like 57.9 °F
N
2.0
Wind Variable Wind from WNW
Gusts 13.0 mph

Today
High -- | Low -- °F
--% Chance of Precip.
Yesterday
High -- | Low -- °F
Precip. -- in
Pressure 30.02 in
Visibility 25.0 miles
Clouds Mostly Cloudy 15000 ft
Dew Point 18 °F
Humidity 21%
Rainfall 0.00 in
Snow Depth Not available.
7:16 AM 5:29 PM
Waxing Crescent, 7% visible
METAR KSHR 102050Z 35013KT 25SM BKN150 14/M08 A3002
Pressure 30.02 in
Visibility 25.0 miles
Clouds Mostly Cloudy 15000 ft
Dew Point 18 °F
Humidity 21%
Rainfall 0.00 in
Snow Depth Not available.
7:16 AM 5:29 PM
Waxing Crescent, 7% visible
METAR KSHR 102050Z 35013KT 25SM BKN150 14/M08 A3002

10-Day Weather Forecast

Almanac

Astronomy

Feb. 10, 2016 Rise Set
Actual Time
Civil Twilight
Nautical Twilight
Astronomical Twilight
Moon
Length of Visible Light
Length of Day
Tomorrow will be .
, % of the Moon is Illuminated

Today's Extremes

State Highs State Lows

Community

WunderPhotos

Upload Photos

1,891,947 photos uploaded!

WunderBlog® & News

Nearby

Air Quality

  Air Quality AQ Index Pollutant
Not available.

Snow Depth

Station Depth Elevation

Earthquake Activity

City Distance Mag. Time & Date
Minimum magnitude displayed is 2.5.

Coastal Water Temperatures

Place Temperature

Stations

Nearby Weather Stations

Station Location Temp. Windchill Dew Point Humidity Wind Precip. Elev Updated Type
                   

Watches & Warnings

There are currently no watches in effect.